Current | Forecast
Updated: 10:00 PM JST on April 29, 2017
Observed at Naha City, Japan
Temperature 68°F
Humidity 49%
Dew Point 48°F
Wind NNE at 5 mph
Pressure 29.98 in (Steady)
Conditions Clear
Visibility -
UV N/A
Clouds
Yesterday's Maximum 73°F
Yesterday's Minimum 64°F approx.
Yesterday's Cooling Degree Days 4 approx.
Sunrise5:55 AM JST
Sunset7:01 PM JST
Moon Rise8:18 AM JST
Moon Set10:04 PM JST
Moon PhaseMoon Phase
Waxing Crescent
Raw METARMETAR ROAH 291300Z 03004KT CAVOK 20/09 Q1015 RMK A3000


Monday
. High: 78° F.
Tuesday
. High: 77° F.
Wednesday
. High: 77° F.
Thursday
. High: 78° F.
Friday
. High: 78° F.
Saturday
. High: 78° F.
Sunday
. High: 80° F.
Monday
. High: 78° F.

Units: English | Metric

Find the Weather for any City, State or Zipcode, or Country:

U.S. State List | Severe Weather | Tropical Storms | Ski Conditions
United States | Canada | Central America | South America | Asia | Europe | Australia | Africa | Islands

Weather Underground

© Copyright 2017
The Weather Company, LLC